Terminal Aerodrome Forecast
Issued by NWS

Home | Current Version | Previous Version | Text Only | Print | Product List | Glossary Off
Versions: 1 2 3 4 5 6 7 8 9 10 11 12 13 14 15 16 17 18 19 20 21 22

000
FTUS43 KBIS 280500
TAFDIK
TAF
KDIK 280535Z 2806/2906 01016G22KT P6SM SCT030 BKN050 OVC070
     FM280900 02016KT P6SM VCSH SCT020 BKN030 OVC050
     FM281200 04017G23KT 6SM -SHRA BR BKN012 OVC020
     FM290200 06014KT 4SM BR VCSH BKN010 OVC020=

USA.gov is the U.S. government's official web portal to all federal, state and local government web resources and services.